Time;durP1;ratioP1;P1;durP2;ratioP2;P2;SDS_P1;SDS_P2;PMS_P1;PMS_P2;Temp;Humidity;BMP_temperature;BMP_pressure;BME280_temperature;BME280_humidity;BME280_pressure;Samples;Min_cycle;Max_cycle;Signal;HPM_P1;HPM_P2
2021/08/24 00:01:37;;;;;;;9.30;5.40;;;;;;;15.96;100.00;98953.75;4062164;86;21039;-83
2021/08/24 00:07:38;;;;;;;11.25;5.35;;;;;;;15.79;100.00;98958.83;4067921;84;21098;-82
2021/08/24 00:13:40;;;;;;;14.70;7.03;;;;;;;15.61;100.00;98943.23;4157319;84;21018;-82
2021/08/24 00:19:41;;;;;;;11.33;7.65;;;;;;;15.68;100.00;98936.88;4158986;84;21637;-82
2021/08/24 00:25:45;;;;;;;15.10;7.33;;;;;;;15.76;100.00;98941.72;4170617;84;21048;-81
2021/08/24 00:31:46;;;;;;;13.95;7.80;;;;;;;15.76;100.00;98942.51;4004332;86;21034;-82
2021/08/24 00:37:48;;;;;;;15.28;7.47;;;;;;;15.87;100.00;98943.77;4158282;84;21620;-82
2021/08/24 00:43:49;;;;;;;12.33;7.70;;;;;;;15.92;100.00;98949.64;4166815;84;21019;-82
2021/08/24 00:49:50;;;;;;;11.83;8.00;;;;;;;15.94;100.00;98930.70;4080767;85;21143;-82
2021/08/24 00:55:54;;;;;;;11.75;6.80;;;;;;;15.93;100.00;98938.01;4084687;86;21035;-83
2021/08/24 01:01:56;;;;;;;13.90;7.08;;;;;;;15.98;100.00;98951.34;4162547;84;21105;-83
2021/08/24 01:08:20;;;;;;;11.75;7.62;;;;;;;16.07;100.00;98943.36;4155440;84;21039;-82
2021/08/24 01:15:00;;;;;;;11.68;8.13;;;;;;;15.98;100.00;98949.95;4157621;84;21495;-83
2021/08/24 01:21:33;;;;;;;16.60;9.43;;;;;;;15.97;100.00;98946.44;4160557;84;21094;-84
2021/08/24 01:27:52;;;;;;;12.05;7.90;;;;;;;15.87;100.00;98940.42;4164119;84;21094;-83
2021/08/24 01:34:26;;;;;;;14.55;9.15;;;;;;;15.92;100.00;98943.32;4165231;84;21492;-83
2021/08/24 01:40:43;;;;;;;12.75;7.60;;;;;;;16.03;100.00;98943.98;4115484;84;21097;-83
2021/08/24 01:47:06;;;;;;;13.85;9.18;;;;;;;16.12;100.00;98952.55;4159070;84;21042;-83
2021/08/24 01:53:28;;;;;;;11.95;8.73;;;;;;;16.16;100.00;98947.17;4160599;84;21106;-83
2021/08/24 01:59:56;;;;;;;18.50;9.10;;;;;;;16.19;100.00;98943.61;4013182;86;21621;-82
2021/08/24 02:06:03;;;;;;;12.25;8.35;;;;;;;16.24;100.00;98943.75;4010745;87;21103;-83
2021/08/24 02:12:07;;;;;;;17.85;9.48;;;;;;;16.18;100.00;98941.23;4161100;84;21074;-82
2021/08/24 02:18:14;;;;;;;14.47;11.05;;;;;;;16.20;100.00;98941.61;4019823;86;21100;-82
2021/08/24 02:24:20;;;;;;;13.93;10.48;;;;;;;16.21;100.00;98928.00;3993812;87;21088;-83
2021/08/24 02:30:23;;;;;;;17.95;11.95;;;;;;;16.21;100.00;98922.48;4039293;86;21067;-82
2021/08/24 02:36:24;;;;;;;19.87;13.05;;;;;;;16.22;100.00;98917.92;4028450;85;21160;-83
2021/08/24 02:42:52;;;;;;;17.15;12.55;;;;;;;16.17;100.00;98914.23;3990193;87;21058;-82
2021/08/24 02:48:58;;;;;;;14.30;11.18;;;;;;;16.03;100.00;98915.00;4068158;85;21452;-83
2021/08/24 02:55:00;;;;;;;22.00;12.65;;;;;;;16.09;100.00;98909.20;4158165;84;21121;-84
2021/08/24 03:01:03;;;;;;;22.32;13.15;;;;;;;16.12;100.00;98906.98;4155005;84;21562;-82
2021/08/24 03:07:25;;;;;;;24.52;14.50;;;;;;;16.17;100.00;98905.16;4164772;84;21862;-82
2021/08/24 03:13:46;;;;;;;29.90;17.05;;;;;;;16.13;100.00;98910.72;4160332;84;21111;-83
2021/08/24 03:19:50;;;;;;;29.52;16.07;;;;;;;16.12;100.00;98906.98;4159068;84;21447;-82
2021/08/24 03:25:54;;;;;;;31.90;18.35;;;;;;;16.15;100.00;98907.54;4169870;84;21087;-83
2021/08/24 03:31:57;;;;;;;47.73;22.22;;;;;;;16.22;100.00;98909.64;4142347;82;27126;-82
2021/08/24 03:37:58;;;;;;;41.55;21.90;;;;;;;16.26;100.00;98904.84;4105150;85;21084;-83
2021/08/24 03:43:59;;;;;;;46.58;22.87;;;;;;;16.27;100.00;98904.25;4103479;85;21085;-83
2021/08/24 03:50:00;;;;;;;38.50;20.43;;;;;;;16.25;100.00;98919.06;4105812;85;21074;-83
2021/08/24 03:56:06;;;;;;;37.93;19.87;;;;;;;16.25;100.00;98922.62;4102761;85;21438;-82
2021/08/24 04:02:07;;;;;;;39.35;21.90;;;;;;;16.29;100.00;98936.36;4099626;85;22306;-83
2021/08/24 04:08:09;;;;;;;34.25;19.57;;;;;;;16.29;100.00;98936.36;4094018;85;21092;-82
2021/08/24 04:14:11;;;;;;;37.93;19.15;;;;;;;16.27;100.00;98944.30;4098731;85;21047;-82
2021/08/24 04:20:14;;;;;;;36.65;19.80;;;;;;;16.26;100.00;98953.17;4097900;85;21119;-82
2021/08/24 04:26:17;;;;;;;35.80;19.25;;;;;;;16.29;100.00;98949.58;4094276;85;21060;-83
2021/08/24 04:32:26;;;;;;;31.65;18.25;;;;;;;16.28;100.00;98953.55;4100544;85;21135;-83
2021/08/24 04:38:28;;;;;;;29.42;16.65;;;;;;;16.29;100.00;98961.22;4100435;85;21616;-84
2021/08/24 04:44:29;;;;;;;27.42;15.48;;;;;;;16.29;100.00;98975.83;4103146;85;21060;-85
2021/08/24 04:50:30;;;;;;;23.32;16.10;;;;;;;16.31;100.00;98982.31;4096142;85;21151;-83
2021/08/24 04:56:32;;;;;;;30.60;15.58;;;;;;;16.32;100.00;98979.76;4097226;85;21055;-83
2021/08/24 05:02:33;;;;;;;23.00;14.80;;;;;;;16.33;100.00;98986.25;4095939;85;21089;-82
2021/08/24 05:08:34;;;;;;;25.17;15.38;;;;;;;16.32;100.00;98994.33;4097528;85;21443;-82
2021/08/24 05:14:36;;;;;;;22.02;15.93;;;;;;;16.28;100.00;98994.19;4101129;85;21533;-82
2021/08/24 05:20:37;;;;;;;28.77;17.65;;;;;;;16.28;100.00;99010.17;4097590;85;20977;-83
2021/08/24 05:26:38;;;;;;;32.15;20.60;;;;;;;16.24;100.00;99003.89;4091940;85;21079;-82
2021/08/24 05:32:40;;;;;;;33.33;19.95;;;;;;;16.26;100.00;99011.77;4097311;85;21128;-82
2021/08/24 05:38:41;;;;;;;32.15;20.00;;;;;;;16.29;100.00;99020.02;4101506;85;21063;-82
2021/08/24 05:44:42;;;;;;;35.03;20.55;;;;;;;16.30;100.00;99018.81;4099144;85;21028;-83
2021/08/24 05:50:44;;;;;;;33.73;20.10;;;;;;;16.32;100.00;99018.43;4101098;85;21041;-83
2021/08/24 05:56:46;;;;;;;31.25;19.48;;;;;;;16.33;100.00;99022.75;4097447;85;21072;-81
2021/08/24 06:02:48;;;;;;;34.85;21.75;;;;;;;16.33;100.00;99028.27;4099395;85;21055;-82
2021/08/24 06:08:50;;;;;;;36.33;22.98;;;;;;;16.32;100.00;99028.09;4092809;85;21092;-82
2021/08/24 06:14:53;;;;;;;36.60;23.45;;;;;;;16.31;100.00;99030.06;4102147;85;21379;-83
2021/08/24 06:20:54;;;;;;;34.03;22.13;;;;;;;16.32;100.00;99033.63;4098376;85;21458;-83
2021/08/24 06:26:58;;;;;;;36.10;22.02;;;;;;;16.32;100.00;99039.91;4100675;85;21146;-82
2021/08/24 06:33:00;;;;;;;37.35;22.58;;;;;;;16.34;100.00;99042.27;4101487;85;21065;-83
2021/08/24 06:39:01;;;;;;;39.23;23.07;;;;;;;16.34;100.00;99045.02;4104592;85;21035;-83
2021/08/24 06:45:02;;;;;;;41.33;21.73;;;;;;;16.33;100.00;99043.47;4089925;85;21080;-84
2021/08/24 06:51:04;;;;;;;35.15;22.30;;;;;;;16.33;100.00;99049.78;4104554;85;21064;-83
2021/08/24 06:57:06;;;;;;;38.28;21.50;;;;;;;16.31;100.00;99049.99;4082285;85;21064;-83
2021/08/24 07:03:09;;;;;;;49.58;24.45;;;;;;;16.22;100.00;99050.50;4087773;85;21028;-83
2021/08/24 07:09:11;;;;;;;45.92;25.97;;;;;;;16.18;100.00;99055.26;4098119;85;21165;-84
2021/08/24 07:15:17;;;;;;;48.87;26.55;;;;;;;16.18;100.00;99062.75;4096053;85;21071;-85
2021/08/24 07:21:20;;;;;;;8.10;5.58;;;;;;;16.07;100.00;99084.95;4061408;85;21095;-84
2021/08/24 07:27:22;;;;;;;7.58;5.35;;;;;;;15.91;100.00;99077.80;4057533;85;21670;-84
2021/08/24 07:33:24;;;;;;;7.92;3.40;;;;;;;15.81;100.00;99083.42;4097154;85;21734;-84
2021/08/24 07:39:25;;;;;;;4.70;3.20;;;;;;;15.79;100.00;99093.48;4006019;87;21184;-85
2021/08/24 07:45:27;;;;;;;3.95;3.17;;;;;;;15.79;100.00;99097.62;4093146;85;21102;-84
2021/08/24 07:51:28;;;;;;;4.85;2.20;;;;;;;15.82;100.00;99098.19;4101046;85;21049;-85
2021/08/24 07:57:29;;;;;;;2.75;1.82;;;;;;;15.82;100.00;99103.72;4095028;85;21571;-84
2021/08/24 08:03:31;;;;;;;4.78;1.60;;;;;;;15.83;100.00;99114.17;4103489;85;21402;-84
2021/08/24 08:09:32;;;;;;;2.15;0.82;;;;;;;15.82;100.00;99118.13;4009397;87;21448;-83
2021/08/24 08:15:34;;;;;;;1.72;0.75;;;;;;;15.74;100.00;99132.55;3948586;88;21122;-84
2021/08/24 08:21:38;;;;;;;0.78;0.55;;;;;;;15.57;100.00;99127.36;3924270;89;21515;-84
2021/08/24 08:27:39;;;;;;;0.70;0.40;;;;;;;15.53;100.00;99132.11;4014120;87;21075;-86
2021/08/24 08:33:41;;;;;;;2.27;0.57;;;;;;;15.44;100.00;99139.29;4079720;85;21160;-84
2021/08/24 08:39:42;;;;;;;2.15;0.50;;;;;;;15.37;100.00;99154.45;4072731;85;21071;-83
2021/08/24 08:45:47;;;;;;;1.10;0.50;;;;;;;15.26;100.00;99168.31;4063402;86;21537;-84
2021/08/24 08:52:12;;;;;;;2.33;0.60;;;;;;;15.20;100.00;99175.44;4073334;85;21034;-83
2021/08/24 08:58:28;;;;;;;0.70;0.60;;;;;;;15.10;100.00;99184.52;4080504;85;21673;-83
2021/08/24 09:04:37;;;;;;;1.52;0.57;;;;;;;15.07;100.00;99194.19;4095816;85;21103;-84
2021/08/24 09:10:49;;;;;;;0.82;0.53;;;;;;;15.04;100.00;99197.73;4100520;85;21564;-84
2021/08/24 09:17:07;;;;;;;0.65;0.50;;;;;;;14.91;100.00;99208.41;4095863;85;21060;-84
2021/08/24 09:23:12;;;;;;;1.17;0.53;;;;;;;14.67;100.00;99220.88;4109043;85;21130;-81
2021/08/24 09:29:18;;;;;;;0.75;0.60;;;;;;;14.51;100.00;99232.31;4102769;85;21052;-84
2021/08/24 09:35:38;;;;;;;0.75;0.42;;;;;;;14.44;100.00;99230.93;4104086;85;21135;-84
2021/08/24 09:41:43;;;;;;;0.80;0.50;;;;;;;14.43;100.00;99232.70;3964613;87;29171;-84
2021/08/24 09:47:49;;;;;;;0.80;0.60;;;;;;;14.58;100.00;99248.82;4099939;85;21132;-83
2021/08/24 09:53:57;;;;;;;2.08;0.40;;;;;;;14.46;100.00;99249.23;4104112;85;21040;-84
2021/08/24 10:00:08;;;;;;;0.78;0.50;;;;;;;14.40;100.00;99262.41;4156350;82;27472;-84
2021/08/24 10:06:32;;;;;;;0.80;0.50;;;;;;;14.34;100.00;99266.74;4243747;82;21069;-84
2021/08/24 10:12:34;;;;;;;0.70;0.50;;;;;;;14.31;100.00;99271.66;4248715;82;21085;-84
2021/08/24 10:18:37;;;;;;;1.72;0.70;;;;;;;14.29;100.00;99277.56;4142603;84;21061;-84
2021/08/24 10:24:42;;;;;;;1.40;0.75;;;;;;;14.26;100.00;99281.10;4135257;84;21104;-84
2021/08/24 10:30:56;;;;;;;1.47;0.80;;;;;;;14.30;100.00;99291.52;4250235;82;21592;-86
2021/08/24 10:37:29;;;;;;;1.27;1.00;;;;;;;14.35;100.00;99302.73;4264781;82;21717;-84
2021/08/24 10:43:31;;;;;;;1.20;0.95;;;;;;;14.41;100.00;99309.45;4250637;82;22015;-84
2021/08/24 10:49:32;;;;;;;1.77;1.42;;;;;;;14.36;100.00;99310.59;4251434;82;21078;-83
2021/08/24 10:55:52;;;;;;;2.70;1.75;;;;;;;14.36;100.00;99325.75;4248645;82;21069;-83
2021/08/24 11:02:07;;;;;;;4.37;1.82;;;;;;;14.38;100.00;99331.66;4089498;84;21120;-84
2021/08/24 11:08:40;;;;;;;3.33;1.62;;;;;;;14.38;100.00;99336.37;4113120;84;21086;-85
2021/08/24 11:15:21;;;;;;;3.42;2.10;;;;;;;14.32;100.00;99343.45;4132104;84;21677;-85
2021/08/24 11:21:51;;;;;;;5.17;2.20;;;;;;;14.21;100.00;99357.17;4140362;84;21091;-84
2021/08/24 11:28:43;;;;;;;3.60;1.65;;;;;;;14.14;100.00;99362.67;4139651;84;21552;-84
2021/08/24 11:35:00;;;;;;;4.00;2.17;;;;;;;14.01;100.00;99370.50;4055738;85;21157;-84
2021/08/24 11:41:19;;;;;;;4.45;2.50;;;;;;;13.89;100.00;99384.59;4255931;82;21006;-84
2021/08/24 11:47:33;;;;;;;3.42;2.27;;;;;;;13.80;100.00;99397.13;4243259;82;21137;-82
2021/08/24 11:53:54;;;;;;;3.80;2.40;;;;;;;13.77;100.00;99408.33;4269070;82;21550;-83
2021/08/24 11:59:56;;;;;;;5.95;2.60;;;;;;;13.80;100.00;99423.27;4118316;84;21546;-83
2021/08/24 12:06:31;;;;;;;5.72;2.52;;;;;;;13.77;100.00;99432.30;4115225;84;21030;-85
2021/08/24 12:12:47;;;;;;;6.22;2.87;;;;;;;13.87;100.00;99448.09;4133642;83;21444;-84
2021/08/24 12:19:11;;;;;;;4.95;2.37;;;;;;;13.93;100.00;99442.41;4035924;86;21099;-84
2021/08/24 12:25:33;;;;;;;3.22;2.12;;;;;;;13.95;100.00;99456.58;4127830;84;21041;-84
2021/08/24 12:31:43;;;;;;;5.08;2.40;;;;;;;13.95;100.00;99463.46;4103442;85;21682;-84
2021/08/24 12:37:58;;;;;;;5.47;2.30;;;;;;;14.02;100.00;99473.91;4100982;85;21126;-84
2021/08/24 12:44:20;;;;;;;2.98;2.15;;;;;;;14.16;100.00;99488.32;4124817;84;21054;-84
2021/08/24 12:50:27;;;;;;;2.62;1.77;;;;;;;14.25;100.00;99499.02;4134218;84;21065;-83
2021/08/24 12:56:42;;;;;;;3.60;2.20;;;;;;;14.26;100.00;99514.36;4097982;84;21059;-83
2021/08/24 13:02:53;;;;;;;2.87;2.08;;;;;;;14.30;100.00;99514.58;4041649;86;21090;-84
2021/08/24 13:09:20;;;;;;;2.35;2.02;;;;;;;14.42;100.00;99528.02;4097876;85;21071;-84
2021/08/24 13:15:42;;;;;;;4.47;2.13;;;;;;;14.37;100.00;99530.34;4111700;84;21060;-84
2021/08/24 13:22:00;;;;;;;3.75;2.37;;;;;;;14.46;100.00;99539.03;4126400;84;21876;-83
2021/08/24 13:28:07;;;;;;;;;;;;;;;14.56;100.00;99546.56;4103479;84;21068;-84
2021/08/24 13:34:34;;;;;;;3.08;2.08;;;;;;;14.58;100.00;99544.98;4084377;85;20572;-83
2021/08/24 13:40:36;;;;;;;8.68;3.00;;;;;;;14.43;100.00;99554.38;4243884;83;21511;-83
2021/08/24 13:46:38;;;;;;;3.52;2.10;;;;;;;14.42;100.00;99564.41;4249232;82;20983;-83
2021/08/24 13:52:39;;;;;;;4.70;2.27;;;;;;;14.36;100.00;99574.22;4258932;82;20991;-84
2021/08/24 13:58:42;;;;;;;4.00;2.60;;;;;;;14.34;100.00;99576.56;4131069;84;21582;-84
2021/08/24 14:04:48;;;;;;;3.40;2.50;;;;;;;14.33;100.00;99578.52;4148748;83;21633;-84
2021/08/24 14:10:59;;;;;;;4.43;3.00;;;;;;;14.27;100.00;99577.31;4032827;86;21082;-83
2021/08/24 14:17:01;;;;;;;3.35;2.83;;;;;;;14.35;100.00;99589.15;4251170;82;21638;-84
2021/08/24 14:23:11;;;;;;;7.10;3.08;;;;;;;14.41;100.00;99591.16;4249978;82;21154;-84
2021/08/24 14:29:18;;;;;;;4.25;2.85;;;;;;;14.45;100.00;99595.31;4253890;82;21048;-83
2021/08/24 14:35:47;;;;;;;3.12;2.83;;;;;;;14.56;100.00;99588.69;4254227;82;21617;-84
2021/08/24 14:41:56;;;;;;;4.40;3.00;;;;;;;14.65;100.00;99592.45;4254642;82;21458;-84
2021/08/24 14:48:03;;;;;;;6.65;2.90;;;;;;;14.64;100.00;99591.68;4130959;84;21409;-84
2021/08/24 14:54:04;;;;;;;4.30;2.92;;;;;;;14.55;100.00;99591.22;4137849;84;21090;-84
2021/08/24 15:00:33;;;;;;;6.67;3.05;;;;;;;14.53;100.00;99602.44;4016518;86;21606;-84
2021/08/24 15:06:42;;;;;;;7.12;3.42;;;;;;;14.52;100.00;99608.53;4228987;82;21022;-84
2021/08/24 15:12:45;;;;;;;5.60;3.00;;;;;;;14.56;100.00;99608.55;4248154;82;21511;-83
2021/08/24 15:18:51;;;;;;;3.22;2.35;;;;;;;14.46;100.00;99609.27;4251936;82;21634;-85
2021/08/24 15:24:56;;;;;;;;;;;;;;;14.38;100.00;99611.78;4138988;84;21050;-84
2021/08/24 15:31:20;;;;;;;4.17;2.15;;;;;;;14.23;100.00;99629.38;4083053;85;20443;-84
2021/08/24 15:37:22;;;;;;;3.50;2.00;;;;;;;14.08;100.00;99632.03;4117062;84;21493;-83
2021/08/24 15:43:34;;;;;;;4.67;1.70;;;;;;;14.11;100.00;99642.28;4138716;84;21064;-85
2021/08/24 15:49:37;;;;;;;4.28;2.12;;;;;;;14.09;100.00;99645.23;4125327;84;21136;-83
2021/08/24 15:55:56;;;;;;;6.67;2.00;;;;;;;13.95;100.00;99641.76;4036894;86;21068;-83
2021/08/24 16:01:57;;;;;;;4.62;1.80;;;;;;;14.03;100.00;99653.64;4242700;82;21007;-83
2021/08/24 16:07:59;;;;;;;5.22;1.98;;;;;;;14.15;100.00;99636.81;4258742;82;20955;-82
2021/08/24 16:14:02;;;;;;;4.00;2.08;;;;;;;14.22;100.00;99631.33;4128638;84;21504;-83
2021/08/24 16:20:06;;;;;;;3.85;2.20;;;;;;;14.19;100.00;99643.11;4131769;84;21623;-82
2021/08/24 16:26:08;;;;;;;4.35;2.47;;;;;;;14.23;100.00;99646.70;4142345;84;21091;-82
2021/08/24 16:32:09;;;;;;;6.87;2.30;;;;;;;14.07;100.00;99635.97;4259794;82;21010;-82
2021/08/24 16:38:20;;;;;;;3.58;2.20;;;;;;;13.84;100.00;99655.25;4258590;81;21054;-82
2021/08/24 16:44:22;;;;;;;3.67;2.05;;;;;;;13.71;100.00;99649.81;4260603;82;21553;-82
2021/08/24 16:50:24;;;;;;;6.42;2.00;;;;;;;13.66;100.00;99650.95;4244543;82;22074;-84
2021/08/24 16:56:26;;;;;;;5.90;1.90;;;;;;;13.66;100.00;99656.46;4249632;81;21070;-83
2021/08/24 17:02:27;;;;;;;3.15;2.10;;;;;;;13.64;100.00;99658.80;4258233;82;21570;-84
2021/08/24 17:08:30;;;;;;;8.13;2.40;;;;;;;13.57;100.00;99664.82;4256667;82;21030;-83
2021/08/24 17:14:34;;;;;;;5.05;2.52;;;;;;;13.57;100.00;99662.87;4117860;84;21027;-84
2021/08/24 17:20:39;;;;;;;5.12;2.37;;;;;;;13.61;100.00;99658.18;4132759;84;21536;-84
2021/08/24 17:26:40;;;;;;;8.40;3.05;;;;;;;13.62;100.00;99669.41;4133939;84;21059;-83
2021/08/24 17:32:41;;;;;;;7.67;1.98;;;;;;;13.73;100.00;99676.38;4126448;84;21126;-83
2021/08/24 17:38:43;;;;;;;6.00;2.55;;;;;;;13.73;100.00;99679.90;4122572;84;21022;-83
2021/08/24 17:44:44;;;;;;;7.60;2.90;;;;;;;13.74;100.00;99676.57;4130805;84;21634;-84
2021/08/24 17:50:49;;;;;;;4.85;2.70;;;;;;;13.71;100.00;99678.70;4126443;84;21011;-83
2021/08/24 17:56:48;;;;;;;4.87;2.10;;;;;;;13.59;100.00;99682.52;4135657;84;21036;-82
2021/08/24 18:02:51;;;;;;;8.93;2.98;;;;;;;13.45;100.00;99683.75;4128899;84;21044;-83
2021/08/24 18:08:52;;;;;;;4.00;2.75;;;;;;;13.32;100.00;99689.89;4118928;84;21042;-83
2021/08/24 18:14:54;;;;;;;4.33;2.15;;;;;;;13.24;100.00;99689.61;4119718;84;21115;-83
2021/08/24 18:20:55;;;;;;;5.22;2.70;;;;;;;13.22;100.00;99705.10;4257703;82;21602;-84
2021/08/24 18:26:57;;;;;;;5.45;2.52;;;;;;;13.16;100.00;99702.48;4247514;82;21042;-84
2021/08/24 18:32:59;;;;;;;5.28;2.65;;;;;;;13.18;100.00;99711.73;4250626;81;21058;-84
2021/08/24 18:39:00;;;;;;;7.60;2.52;;;;;;;13.19;100.00;99710.55;4257134;82;21057;-83
2021/08/24 18:45:01;;;;;;;7.87;2.75;;;;;;;13.22;100.00;99713.92;4248795;82;21021;-84
2021/08/24 18:51:08;;;;;;;8.98;4.12;;;;;;;13.22;100.00;99713.35;4256049;82;21069;-83
2021/08/24 18:57:09;;;;;;;5.28;3.00;;;;;;;13.23;100.00;99714.16;4110757;83;21677;-83
2021/08/24 19:03:10;;;;;;;7.30;3.60;;;;;;;13.38;100.00;99718.06;4075931;85;21112;-83
2021/08/24 19:09:13;;;;;;;11.50;4.12;;;;;;;13.46;100.00;99717.55;4240448;82;21062;-83
2021/08/24 19:15:15;;;;;;;7.00;3.75;;;;;;;13.42;100.00;99715.36;4244362;82;22369;-83
2021/08/24 19:21:18;;;;;;;5.80;4.08;;;;;;;13.40;100.00;99719.06;4256669;82;21889;-83
2021/08/24 19:27:19;;;;;;;11.78;4.75;;;;;;;13.38;100.00;99718.06;4116315;84;21631;-84
2021/08/24 19:33:20;;;;;;;8.93;4.65;;;;;;;13.36;100.00;99709.39;4080511;85;21541;-83
2021/08/24 19:39:22;;;;;;;10.18;4.90;;;;;;;13.40;100.00;99713.56;4108523;83;21692;-82
2021/08/24 19:45:27;;;;;;;8.40;5.08;;;;;;;13.39;100.00;99710.61;4114049;84;21074;-83
2021/08/24 19:51:28;;;;;;;13.15;5.17;;;;;;;13.34;100.00;99705.45;4154716;83;21055;-83
2021/08/24 19:57:29;;;;;;;13.08;5.78;;;;;;;13.27;100.00;99701.22;4149022;84;21588;-82
2021/08/24 20:03:36;;;;;;;8.50;5.72;;;;;;;13.31;100.00;99697.34;4128092;84;21084;-82
2021/08/24 20:09:37;;;;;;;12.65;5.60;;;;;;;13.31;100.00;99702.84;4119403;84;20998;-82
2021/08/24 20:15:44;;;;;;;12.23;5.40;;;;;;;13.14;100.00;99699.91;4104564;84;21092;-83
2021/08/24 20:21:45;;;;;;;8.73;5.72;;;;;;;13.12;100.00;99698.91;4115044;84;21050;-83
2021/08/24 20:27:46;;;;;;;11.78;5.42;;;;;;;13.25;100.00;99702.20;4131290;84;21055;-81
2021/08/24 20:33:48;;;;;;;19.98;6.25;;;;;;;13.22;100.00;99701.55;4105962;85;21028;-83
2021/08/24 20:39:49;;;;;;;8.85;5.55;;;;;;;13.30;100.00;99704.59;4050548;85;21076;-83
2021/08/24 20:45:51;;;;;;;14.87;5.58;;;;;;;13.38;100.00;99696.06;4082974;85;21064;-82
2021/08/24 20:51:52;;;;;;;15.18;7.00;;;;;;;13.40;100.00;99699.23;4136514;84;21039;-82
2021/08/24 20:57:54;;;;;;;11.48;6.62;;;;;;;13.33;100.00;99696.97;4114923;84;21062;-82
2021/08/24 21:03:56;;;;;;;14.38;6.58;;;;;;;13.28;100.00;99696.73;4147627;84;21083;-83
2021/08/24 21:09:58;;;;;;;13.65;6.33;;;;;;;13.23;100.00;99698.45;4149886;83;21685;-82
2021/08/24 21:15:59;;;;;;;12.95;6.90;;;;;;;13.20;100.00;99685.44;4126420;84;21655;-83
2021/08/24 21:22:00;;;;;;;15.93;7.17;;;;;;;13.29;100.00;99683.20;4135709;84;22275;-82
2021/08/24 21:28:04;;;;;;;16.37;7.53;;;;;;;13.32;100.00;99685.20;4135638;84;21097;-82
2021/08/24 21:34:06;;;;;;;22.98;8.43;;;;;;;13.31;100.00;99689.09;4248624;82;21423;-83
2021/08/24 21:40:08;;;;;;;15.05;8.30;;;;;;;13.24;100.00;99694.53;4244503;82;21579;-82
2021/08/24 21:46:10;;;;;;;18.57;8.50;;;;;;;13.14;100.00;99694.41;4253639;81;21525;-82
2021/08/24 21:52:12;;;;;;;15.43;8.30;;;;;;;13.03;100.00;99686.63;4254943;82;21039;-84
2021/08/24 21:58:13;;;;;;;17.23;9.20;;;;;;;13.03;100.00;99694.27;4256673;81;21057;-82
2021/08/24 22:04:15;;;;;;;17.23;8.75;;;;;;;12.97;100.00;99690.81;4146397;84;21075;-82
2021/08/24 22:10:17;;;;;;;20.40;10.20;;;;;;;12.87;100.00;99692.86;4138813;83;21074;-82
2021/08/24 22:16:21;;;;;;;17.45;9.70;;;;;;;12.84;100.00;99691.66;4087279;85;21059;-82
2021/08/24 22:22:22;;;;;;;16.05;9.38;;;;;;;12.80;100.00;99689.44;4246896;83;21078;-83
2021/08/24 22:28:30;;;;;;;20.75;10.20;;;;;;;12.62;100.00;99674.69;4260235;82;21561;-82
2021/08/24 22:34:30;;;;;;;15.68;10.63;;;;;;;12.48;100.00;99680.75;4265550;81;21054;-83
2021/08/24 22:40:31;;;;;;;17.87;10.08;;;;;;;12.55;100.00;99675.38;4252692;82;21026;-82
2021/08/24 22:46:33;;;;;;;23.67;11.10;;;;;;;12.52;100.00;99665.13;4251329;82;21062;-82
2021/08/24 22:52:34;;;;;;;20.15;10.23;;;;;;;12.45;100.00;99669.71;4253987;82;21531;-82
2021/08/24 22:58:37;;;;;;;19.52;9.25;;;;;;;12.45;100.00;99670.52;4244591;82;21078;-82
2021/08/24 23:04:39;;;;;;;15.30;9.03;;;;;;;12.52;100.00;99665.13;4261449;82;21055;-81
2021/08/24 23:10:40;;;;;;;17.40;9.70;;;;;;;12.52;100.00;99663.76;4256472;82;21054;-83
2021/08/24 23:16:41;;;;;;;15.75;9.25;;;;;;;12.49;100.00;99659.02;4258530;82;21110;-82
2021/08/24 23:22:43;;;;;;;22.30;9.00;;;;;;;12.44;100.00;99659.33;4259035;82;21089;-82
2021/08/24 23:28:44;;;;;;;15.45;10.23;;;;;;;12.43;100.00;99657.72;4262057;82;21038;-83
2021/08/24 23:34:45;;;;;;;26.73;10.90;;;;;;;12.26;100.00;99662.38;4267423;82;21010;-82
2021/08/24 23:40:46;;;;;;;22.40;12.80;;;;;;;12.10;100.00;99651.36;4267475;82;21033;-82
2021/08/24 23:46:47;;;;;;;20.12;11.85;;;;;;;11.80;100.00;99648.54;4148071;84;21075;-82
2021/08/24 23:52:49;;;;;;;26.70;14.63;;;;;;;11.61;100.00;99651.88;4129815;84;21137;-82
2021/08/24 23:58:51;;;;;;;27.42;15.40;;;;;;;11.45;100.00;99645.75;4139470;84;21898;-83
